sensor_id;sensor_type;location;lat;lon;timestamp;temperature;humidity
16827;DHT22;8530;49.540;8.576;2023-05-21T00:02:21;17.10;92.00
16827;DHT22;8530;49.540;8.576;2023-05-21T00:04:48;17.20;92.10
16827;DHT22;8530;49.540;8.576;2023-05-21T00:07:15;17.10;92.20
16827;DHT22;8530;49.540;8.576;2023-05-21T00:09:43;17.10;92.20
16827;DHT22;8530;49.540;8.576;2023-05-21T00:12:09;17.00;92.30
16827;DHT22;8530;49.540;8.576;2023-05-21T00:14:36;17.00;92.40
16827;DHT22;8530;49.540;8.576;2023-05-21T00:17:04;16.90;92.40
16827;DHT22;8530;49.540;8.576;2023-05-21T00:19:31;16.90;92.60
16827;DHT22;8530;49.540;8.576;2023-05-21T00:21:58;16.80;92.90
16827;DHT22;8530;49.540;8.576;2023-05-21T00:24:26;16.80;92.80
16827;DHT22;8530;49.540;8.576;2023-05-21T00:26:53;16.70;92.80
16827;DHT22;8530;49.540;8.576;2023-05-21T00:29:20;16.70;93.00
16827;DHT22;8530;49.540;8.576;2023-05-21T00:31:47;16.60;93.10
16827;DHT22;8530;49.540;8.576;2023-05-21T00:34:16;16.60;93.20
16827;DHT22;8530;49.540;8.576;2023-05-21T00:36:43;16.50;93.30
16827;DHT22;8530;49.540;8.576;2023-05-21T00:39:10;16.50;93.50
16827;DHT22;8530;49.540;8.576;2023-05-21T00:41:37;16.50;93.60
16827;DHT22;8530;49.540;8.576;2023-05-21T00:44:05;16.50;93.70
16827;DHT22;8530;49.540;8.576;2023-05-21T00:46:32;16.50;93.90
16827;DHT22;8530;49.540;8.576;2023-05-21T00:48:59;16.40;93.90
16827;DHT22;8530;49.540;8.576;2023-05-21T00:51:28;16.40;94.10
16827;DHT22;8530;49.540;8.576;2023-05-21T00:53:56;16.40;94.20
16827;DHT22;8530;49.540;8.576;2023-05-21T00:56:24;16.40;94.30
16827;DHT22;8530;49.540;8.576;2023-05-21T00:58:51;16.40;94.40
16827;DHT22;8530;49.540;8.576;2023-05-21T01:01:18;16.40;94.50
16827;DHT22;8530;49.540;8.576;2023-05-21T01:03:45;16.30;94.60
16827;DHT22;8530;49.540;8.576;2023-05-21T01:06:13;16.30;94.80
16827;DHT22;8530;49.540;8.576;2023-05-21T01:08:41;16.30;95.10
16827;DHT22;8530;49.540;8.576;2023-05-21T01:11:09;16.30;95.00
16827;DHT22;8530;49.540;8.576;2023-05-21T01:13:38;16.30;95.10
16827;DHT22;8530;49.540;8.576;2023-05-21T01:16:06;16.30;95.20
16827;DHT22;8530;49.540;8.576;2023-05-21T01:18:33;16.30;95.30
16827;DHT22;8530;49.540;8.576;2023-05-21T01:21:03;16.30;95.40
16827;DHT22;8530;49.540;8.576;2023-05-21T01:23:33;16.30;95.50
16827;DHT22;8530;49.540;8.576;2023-05-21T01:26:00;16.30;95.60
16827;DHT22;8530;49.540;8.576;2023-05-21T01:28:27;16.30;95.70
16827;DHT22;8530;49.540;8.576;2023-05-21T01:30:57;16.30;95.80
16827;DHT22;8530;49.540;8.576;2023-05-21T01:33:32;16.30;95.90
16827;DHT22;8530;49.540;8.576;2023-05-21T01:36:08;16.30;96.00
16827;DHT22;8530;49.540;8.576;2023-05-21T01:38:45;16.30;96.00
16827;DHT22;8530;49.540;8.576;2023-05-21T01:41:15;16.30;96.10
16827;DHT22;8530;49.540;8.576;2023-05-21T01:43:45;16.20;96.10
16827;DHT22;8530;49.540;8.576;2023-05-21T01:46:15;16.20;96.20
16827;DHT22;8530;49.540;8.576;2023-05-21T01:48:43;16.20;96.30
16827;DHT22;8530;49.540;8.576;2023-05-21T01:51:09;16.20;96.40
16827;DHT22;8530;49.540;8.576;2023-05-21T01:53:37;16.10;96.40
16827;DHT22;8530;49.540;8.576;2023-05-21T01:56:07;16.10;96.50
16827;DHT22;8530;49.540;8.576;2023-05-21T01:58:33;16.20;96.60
16827;DHT22;8530;49.540;8.576;2023-05-21T02:01:00;16.10;96.70
16827;DHT22;8530;49.540;8.576;2023-05-21T02:03:28;16.10;96.80
16827;DHT22;8530;49.540;8.576;2023-05-21T02:05:55;16.10;96.80
16827;DHT22;8530;49.540;8.576;2023-05-21T02:08:21;16.10;96.90
16827;DHT22;8530;49.540;8.576;2023-05-21T02:10:49;16.10;97.00
16827;DHT22;8530;49.540;8.576;2023-05-21T02:13:17;16.10;97.00
16827;DHT22;8530;49.540;8.576;2023-05-21T02:15:44;16.10;97.10
16827;DHT22;8530;49.540;8.576;2023-05-21T02:18:11;16.10;97.20
16827;DHT22;8530;49.540;8.576;2023-05-21T02:20:41;16.00;97.20
16827;DHT22;8530;49.540;8.576;2023-05-21T02:23:09;16.00;97.30
16827;DHT22;8530;49.540;8.576;2023-05-21T02:25:35;16.00;97.40
16827;DHT22;8530;49.540;8.576;2023-05-21T02:28:02;16.10;97.50
16827;DHT22;8530;49.540;8.576;2023-05-21T02:30:30;16.10;97.50
16827;DHT22;8530;49.540;8.576;2023-05-21T02:32:57;16.10;97.60
16827;DHT22;8530;49.540;8.576;2023-05-21T02:35:25;16.10;97.60
16827;DHT22;8530;49.540;8.576;2023-05-21T02:37:52;16.10;97.70
16827;DHT22;8530;49.540;8.576;2023-05-21T02:40:23;16.10;97.70
16827;DHT22;8530;49.540;8.576;2023-05-21T02:42:50;16.10;97.80
16827;DHT22;8530;49.540;8.576;2023-05-21T02:45:16;16.10;97.80
16827;DHT22;8530;49.540;8.576;2023-05-21T02:47:44;16.10;97.80
16827;DHT22;8530;49.540;8.576;2023-05-21T02:50:12;16.10;97.90
16827;DHT22;8530;49.540;8.576;2023-05-21T02:52:39;16.10;97.90
16827;DHT22;8530;49.540;8.576;2023-05-21T02:55:07;16.10;97.90
16827;DHT22;8530;49.540;8.576;2023-05-21T02:57:34;16.10;97.90
16827;DHT22;8530;49.540;8.576;2023-05-21T03:00:00;16.10;98.00
16827;DHT22;8530;49.540;8.576;2023-05-21T03:02:28;16.10;98.00
16827;DHT22;8530;49.540;8.576;2023-05-21T03:04:56;16.10;98.00
16827;DHT22;8530;49.540;8.576;2023-05-21T03:07:23;16.10;98.10
16827;DHT22;8530;49.540;8.576;2023-05-21T03:09:49;16.10;98.10
16827;DHT22;8530;49.540;8.576;2023-05-21T03:12:16;16.10;98.10
16827;DHT22;8530;49.540;8.576;2023-05-21T03:14:43;16.10;98.20
16827;DHT22;8530;49.540;8.576;2023-05-21T03:17:10;16.10;98.20
16827;DHT22;8530;49.540;8.576;2023-05-21T03:19:39;16.10;98.20
16827;DHT22;8530;49.540;8.576;2023-05-21T03:22:07;16.10;98.20
16827;DHT22;8530;49.540;8.576;2023-05-21T03:24:34;16.10;98.30
16827;DHT22;8530;49.540;8.576;2023-05-21T03:27:01;16.10;98.30
16827;DHT22;8530;49.540;8.576;2023-05-21T03:29:30;16.10;98.30
16827;DHT22;8530;49.540;8.576;2023-05-21T03:31:57;16.10;98.40
16827;DHT22;8530;49.540;8.576;2023-05-21T03:34:24;16.10;98.40
16827;DHT22;8530;49.540;8.576;2023-05-21T03:36:50;16.10;98.40
16827;DHT22;8530;49.540;8.576;2023-05-21T03:39:18;16.10;98.50
16827;DHT22;8530;49.540;8.576;2023-05-21T03:41:45;16.10;98.50
16827;DHT22;8530;49.540;8.576;2023-05-21T03:44:12;16.10;98.50
16827;DHT22;8530;49.540;8.576;2023-05-21T03:46:38;16.00;98.50
16827;DHT22;8530;49.540;8.576;2023-05-21T03:49:05;16.00;98.50
16827;DHT22;8530;49.540;8.576;2023-05-21T03:51:32;16.10;98.50
16827;DHT22;8530;49.540;8.576;2023-05-21T03:53:58;16.00;98.50
16827;DHT22;8530;49.540;8.576;2023-05-21T03:56:27;16.00;98.50
16827;DHT22;8530;49.540;8.576;2023-05-21T03:58:53;16.00;98.50
16827;DHT22;8530;49.540;8.576;2023-05-21T04:01:20;16.00;98.60
16827;DHT22;8530;49.540;8.576;2023-05-21T04:03:47;16.00;98.60
16827;DHT22;8530;49.540;8.576;2023-05-21T04:06:13;16.00;98.60
16827;DHT22;8530;49.540;8.576;2023-05-21T04:08:41;16.00;98.60
16827;DHT22;8530;49.540;8.576;2023-05-21T04:11:08;16.00;98.70
16827;DHT22;8530;49.540;8.576;2023-05-21T04:13:37;16.00;98.70
16827;DHT22;8530;49.540;8.576;2023-05-21T04:16:04;16.00;98.70
16827;DHT22;8530;49.540;8.576;2023-05-21T04:18:33;16.00;98.70
16827;DHT22;8530;49.540;8.576;2023-05-21T04:20:59;16.00;98.70
16827;DHT22;8530;49.540;8.576;2023-05-21T04:23:27;16.00;98.70
16827;DHT22;8530;49.540;8.576;2023-05-21T04:25:53;16.00;98.70
16827;DHT22;8530;49.540;8.576;2023-05-21T04:28:20;16.00;98.80
16827;DHT22;8530;49.540;8.576;2023-05-21T04:30:49;16.10;98.80
16827;DHT22;8530;49.540;8.576;2023-05-21T04:33:16;16.10;98.80
16827;DHT22;8530;49.540;8.576;2023-05-21T04:35:45;16.10;98.80
16827;DHT22;8530;49.540;8.576;2023-05-21T04:38:14;16.20;98.90
16827;DHT22;8530;49.540;8.576;2023-05-21T04:40:44;16.20;98.80
16827;DHT22;8530;49.540;8.576;2023-05-21T04:43:10;16.30;98.80
16827;DHT22;8530;49.540;8.576;2023-05-21T04:45:37;16.30;98.80
16827;DHT22;8530;49.540;8.576;2023-05-21T04:48:05;16.40;98.80
16827;DHT22;8530;49.540;8.576;2023-05-21T04:50:32;16.40;98.80
16827;DHT22;8530;49.540;8.576;2023-05-21T04:52:59;16.50;98.80
16827;DHT22;8530;49.540;8.576;2023-05-21T04:55:26;16.50;98.70
16827;DHT22;8530;49.540;8.576;2023-05-21T04:57:53;16.60;98.70
16827;DHT22;8530;49.540;8.576;2023-05-21T05:00:20;16.60;98.60
16827;DHT22;8530;49.540;8.576;2023-05-21T05:02:49;16.70;98.60
16827;DHT22;8530;49.540;8.576;2023-05-21T05:05:17;16.70;98.50
16827;DHT22;8530;49.540;8.576;2023-05-21T05:07:44;16.80;98.50
16827;DHT22;8530;49.540;8.576;2023-05-21T05:10:11;16.90;98.50
16827;DHT22;8530;49.540;8.576;2023-05-21T05:12:37;17.00;98.50
16827;DHT22;8530;49.540;8.576;2023-05-21T05:15:05;17.10;98.40
16827;DHT22;8530;49.540;8.576;2023-05-21T05:17:31;17.20;98.40
16827;DHT22;8530;49.540;8.576;2023-05-21T05:20:00;17.30;98.30
16827;DHT22;8530;49.540;8.576;2023-05-21T05:22:28;17.50;98.20
16827;DHT22;8530;49.540;8.576;2023-05-21T05:24:54;17.70;98.20
16827;DHT22;8530;49.540;8.576;2023-05-21T05:27:21;17.80;98.00
16827;DHT22;8530;49.540;8.576;2023-05-21T05:29:48;18.10;98.00
16827;DHT22;8530;49.540;8.576;2023-05-21T05:32:14;18.20;97.80
16827;DHT22;8530;49.540;8.576;2023-05-21T05:34:43;18.40;97.60
16827;DHT22;8530;49.540;8.576;2023-05-21T05:37:10;18.60;97.50
16827;DHT22;8530;49.540;8.576;2023-05-21T05:39:38;18.80;97.30
16827;DHT22;8530;49.540;8.576;2023-05-21T05:42:05;19.00;97.10
16827;DHT22;8530;49.540;8.576;2023-05-21T05:44:32;19.20;96.90
16827;DHT22;8530;49.540;8.576;2023-05-21T05:46:58;19.40;96.60
16827;DHT22;8530;49.540;8.576;2023-05-21T05:49:25;19.60;96.40
16827;DHT22;8530;49.540;8.576;2023-05-21T05:51:52;19.90;96.10
16827;DHT22;8530;49.540;8.576;2023-05-21T05:54:18;20.10;95.80
16827;DHT22;8530;49.540;8.576;2023-05-21T05:56:46;20.40;95.60
16827;DHT22;8530;49.540;8.576;2023-05-21T05:59:13;20.60;95.30
16827;DHT22;8530;49.540;8.576;2023-05-21T06:01:40;20.80;95.00
16827;DHT22;8530;49.540;8.576;2023-05-21T06:04:07;20.90;94.60
16827;DHT22;8530;49.540;8.576;2023-05-21T06:06:34;21.00;94.20
16827;DHT22;8530;49.540;8.576;2023-05-21T06:09:01;21.20;93.90
16827;DHT22;8530;49.540;8.576;2023-05-21T06:11:27;21.40;93.60
16827;DHT22;8530;49.540;8.576;2023-05-21T06:13:55;21.60;93.20
16827;DHT22;8530;49.540;8.576;2023-05-21T06:16:25;22.00;92.80
16827;DHT22;8530;49.540;8.576;2023-05-21T06:18:51;22.30;92.30
16827;DHT22;8530;49.540;8.576;2023-05-21T06:21:18;22.50;91.70
16827;DHT22;8530;49.540;8.576;2023-05-21T06:23:45;23.00;91.30
16827;DHT22;8530;49.540;8.576;2023-05-21T06:26:12;23.80;91.10
16827;DHT22;8530;49.540;8.576;2023-05-21T06:28:38;24.80;90.50
16827;DHT22;8530;49.540;8.576;2023-05-21T06:31:07;25.90;88.60
16827;DHT22;8530;49.540;8.576;2023-05-21T06:33:34;26.90;84.60
16827;DHT22;8530;49.540;8.576;2023-05-21T06:36:00;28.00;81.10
16827;DHT22;8530;49.540;8.576;2023-05-21T06:38:27;29.20;76.40
16827;DHT22;8530;49.540;8.576;2023-05-21T06:40:54;30.50;71.10
16827;DHT22;8530;49.540;8.576;2023-05-21T06:43:22;31.70;64.20
16827;DHT22;8530;49.540;8.576;2023-05-21T06:45:49;32.40;58.00
16827;DHT22;8530;49.540;8.576;2023-05-21T06:48:17;32.60;52.90
16827;DHT22;8530;49.540;8.576;2023-05-21T06:50:44;32.60;49.20
16827;DHT22;8530;49.540;8.576;2023-05-21T06:53:10;32.50;47.20
16827;DHT22;8530;49.540;8.576;2023-05-21T06:55:40;32.80;45.30
16827;DHT22;8530;49.540;8.576;2023-05-21T06:58:08;33.60;43.60
16827;DHT22;8530;49.540;8.576;2023-05-21T07:00:35;34.70;42.00
16827;DHT22;8530;49.540;8.576;2023-05-21T07:03:02;35.70;39.80
16827;DHT22;8530;49.540;8.576;2023-05-21T07:05:30;36.70;37.20
16827;DHT22;8530;49.540;8.576;2023-05-21T07:07:57;37.20;34.90
16827;DHT22;8530;49.540;8.576;2023-05-21T07:10:23;37.40;33.20
16827;DHT22;8530;49.540;8.576;2023-05-21T07:12:50;37.80;31.90
16827;DHT22;8530;49.540;8.576;2023-05-21T07:15:17;38.10;30.80
16827;DHT22;8530;49.540;8.576;2023-05-21T07:17:43;38.40;30.10
16827;DHT22;8530;49.540;8.576;2023-05-21T07:20:11;39.00;29.20
16827;DHT22;8530;49.540;8.576;2023-05-21T07:22:40;39.40;28.30
16827;DHT22;8530;49.540;8.576;2023-05-21T07:25:08;39.80;27.40
16827;DHT22;8530;49.540;8.576;2023-05-21T07:27:34;39.90;26.80
16827;DHT22;8530;49.540;8.576;2023-05-21T07:30:01;40.00;26.40
16827;DHT22;8530;49.540;8.576;2023-05-21T07:32:28;39.80;26.00
16827;DHT22;8530;49.540;8.576;2023-05-21T07:34:55;39.70;25.60
16827;DHT22;8530;49.540;8.576;2023-05-21T07:37:22;39.60;25.30
16827;DHT22;8530;49.540;8.576;2023-05-21T07:39:51;39.60;25.10
16827;DHT22;8530;49.540;8.576;2023-05-21T07:42:17;39.60;24.70
16827;DHT22;8530;49.540;8.576;2023-05-21T07:44:44;39.50;24.30
16827;DHT22;8530;49.540;8.576;2023-05-21T07:47:11;39.20;24.00
16827;DHT22;8530;49.540;8.576;2023-05-21T07:49:38;38.80;24.00
16827;DHT22;8530;49.540;8.576;2023-05-21T07:52:05;38.60;23.90
16827;DHT22;8530;49.540;8.576;2023-05-21T07:54:32;38.40;23.80
16827;DHT22;8530;49.540;8.576;2023-05-21T07:57:00;38.60;24.00
16827;DHT22;8530;49.540;8.576;2023-05-21T07:59:27;39.10;24.00
16827;DHT22;8530;49.540;8.576;2023-05-21T08:01:54;38.90;23.80
16827;DHT22;8530;49.540;8.576;2023-05-21T08:04:20;38.80;23.90
16827;DHT22;8530;49.540;8.576;2023-05-21T08:06:47;39.10;23.70
16827;DHT22;8530;49.540;8.576;2023-05-21T08:09:14;39.50;23.30
16827;DHT22;8530;49.540;8.576;2023-05-21T08:11:41;39.70;22.90
16827;DHT22;8530;49.540;8.576;2023-05-21T08:14:09;39.30;22.70
16827;DHT22;8530;49.540;8.576;2023-05-21T08:16:36;38.70;22.50
16827;DHT22;8530;49.540;8.576;2023-05-21T08:19:03;37.70;22.40
16827;DHT22;8530;49.540;8.576;2023-05-21T08:21:30;36.70;22.50
16827;DHT22;8530;49.540;8.576;2023-05-21T08:23:57;35.50;22.90
16827;DHT22;8530;49.540;8.576;2023-05-21T08:26:24;34.10;23.70
16827;DHT22;8530;49.540;8.576;2023-05-21T08:28:51;33.10;24.50
16827;DHT22;8530;49.540;8.576;2023-05-21T08:31:19;32.10;25.40
16827;DHT22;8530;49.540;8.576;2023-05-21T08:33:49;31.50;26.30
16827;DHT22;8530;49.540;8.576;2023-05-21T08:36:16;30.80;27.10
16827;DHT22;8530;49.540;8.576;2023-05-21T08:38:43;30.30;28.00
16827;DHT22;8530;49.540;8.576;2023-05-21T08:41:11;29.60;28.70
16827;DHT22;8530;49.540;8.576;2023-05-21T08:43:38;29.10;29.30
16827;DHT22;8530;49.540;8.576;2023-05-21T08:46:06;28.70;30.00
16827;DHT22;8530;49.540;8.576;2023-05-21T08:48:36;28.50;30.60
16827;DHT22;8530;49.540;8.576;2023-05-21T08:51:03;28.40;31.40
16827;DHT22;8530;49.540;8.576;2023-05-21T08:53:31;28.30;31.90
16827;DHT22;8530;49.540;8.576;2023-05-21T08:55:58;28.10;32.80
16827;DHT22;8530;49.540;8.576;2023-05-21T08:58:26;27.80;33.20
16827;DHT22;8530;49.540;8.576;2023-05-21T09:00:53;27.70;33.80
16827;DHT22;8530;49.540;8.576;2023-05-21T09:03:20;27.60;34.30
16827;DHT22;8530;49.540;8.576;2023-05-21T09:05:49;27.70;34.60
16827;DHT22;8530;49.540;8.576;2023-05-21T09:08:18;27.70;34.70
16827;DHT22;8530;49.540;8.576;2023-05-21T09:10:48;27.80;34.90
16827;DHT22;8530;49.540;8.576;2023-05-21T09:13:16;27.90;35.10
16827;DHT22;8530;49.540;8.576;2023-05-21T09:15:43;28.00;35.30
16827;DHT22;8530;49.540;8.576;2023-05-21T09:18:10;28.00;35.40
16827;DHT22;8530;49.540;8.576;2023-05-21T09:20:37;28.00;35.50
16827;DHT22;8530;49.540;8.576;2023-05-21T09:23:06;28.10;35.60
16827;DHT22;8530;49.540;8.576;2023-05-21T09:25:37;28.20;35.70
16827;DHT22;8530;49.540;8.576;2023-05-21T09:28:10;28.30;35.80
16827;DHT22;8530;49.540;8.576;2023-05-21T09:30:43;28.60;36.00
16827;DHT22;8530;49.540;8.576;2023-05-21T09:33:10;28.50;35.90
16827;DHT22;8530;49.540;8.576;2023-05-21T09:35:43;28.40;36.00
16827;DHT22;8530;49.540;8.576;2023-05-21T09:38:12;28.40;36.20
16827;DHT22;8530;49.540;8.576;2023-05-21T09:40:43;28.40;36.20
16827;DHT22;8530;49.540;8.576;2023-05-21T09:43:13;28.50;36.10
16827;DHT22;8530;49.540;8.576;2023-05-21T09:45:49;28.60;36.00
16827;DHT22;8530;49.540;8.576;2023-05-21T09:48:16;28.80;36.00
16827;DHT22;8530;49.540;8.576;2023-05-21T09:50:43;29.00;35.80
16827;DHT22;8530;49.540;8.576;2023-05-21T09:53:12;29.10;35.60
16827;DHT22;8530;49.540;8.576;2023-05-21T09:55:39;29.10;35.60
16827;DHT22;8530;49.540;8.576;2023-05-21T09:58:06;29.10;35.70
16827;DHT22;8530;49.540;8.576;2023-05-21T10:00:33;29.10;35.70
16827;DHT22;8530;49.540;8.576;2023-05-21T10:03:00;29.00;35.80
16827;DHT22;8530;49.540;8.576;2023-05-21T10:05:31;29.00;35.90
16827;DHT22;8530;49.540;8.576;2023-05-21T10:08:00;29.10;36.00
16827;DHT22;8530;49.540;8.576;2023-05-21T10:10:29;29.20;36.00
16827;DHT22;8530;49.540;8.576;2023-05-21T10:12:59;29.10;35.90
16827;DHT22;8530;49.540;8.576;2023-05-21T10:15:29;29.10;36.00
16827;DHT22;8530;49.540;8.576;2023-05-21T10:17:58;28.90;36.10
16827;DHT22;8530;49.540;8.576;2023-05-21T10:20:25;28.90;36.10
16827;DHT22;8530;49.540;8.576;2023-05-21T10:22:52;28.90;36.10
16827;DHT22;8530;49.540;8.576;2023-05-21T10:25:19;29.10;36.20
16827;DHT22;8530;49.540;8.576;2023-05-21T10:27:48;29.20;36.10
16827;DHT22;8530;49.540;8.576;2023-05-21T10:30:17;29.30;36.10
16827;DHT22;8530;49.540;8.576;2023-05-21T10:32:44;29.20;36.00
16827;DHT22;8530;49.540;8.576;2023-05-21T10:35:15;29.00;35.80
16827;DHT22;8530;49.540;8.576;2023-05-21T10:37:43;28.90;35.90
16827;DHT22;8530;49.540;8.576;2023-05-21T10:40:10;28.90;35.90
16827;DHT22;8530;49.540;8.576;2023-05-21T10:48:51;28.90;35.90
16827;DHT22;8530;49.540;8.576;2023-05-21T10:51:27;29.00;35.90
16827;DHT22;8530;49.540;8.576;2023-05-21T10:54:07;29.00;35.90
16827;DHT22;8530;49.540;8.576;2023-05-21T10:56:45;29.10;36.00
16827;DHT22;8530;49.540;8.576;2023-05-21T10:59:15;29.20;36.00
16827;DHT22;8530;49.540;8.576;2023-05-21T11:01:49;29.30;35.90
16827;DHT22;8530;49.540;8.576;2023-05-21T11:04:21;29.30;35.90
16827;DHT22;8530;49.540;8.576;2023-05-21T11:06:48;29.50;36.00
16827;DHT22;8530;49.540;8.576;2023-05-21T11:09:15;29.50;35.80
16827;DHT22;8530;49.540;8.576;2023-05-21T11:11:43;29.60;35.80
16827;DHT22;8530;49.540;8.576;2023-05-21T11:14:30;29.80;35.70
16827;DHT22;8530;49.540;8.576;2023-05-21T11:17:01;30.00;35.60
16827;DHT22;8530;49.540;8.576;2023-05-21T11:19:33;30.10;35.30
16827;DHT22;8530;49.540;8.576;2023-05-21T11:22:04;30.30;35.20
16827;DHT22;8530;49.540;8.576;2023-05-21T11:24:32;30.40;35.10
16827;DHT22;8530;49.540;8.576;2023-05-21T11:27:01;30.50;35.00
16827;DHT22;8530;49.540;8.576;2023-05-21T11:29:36;30.60;34.90
16827;DHT22;8530;49.540;8.576;2023-05-21T11:32:08;30.60;34.90
16827;DHT22;8530;49.540;8.576;2023-05-21T11:34:39;30.70;35.40
16827;DHT22;8530;49.540;8.576;2023-05-21T11:37:23;30.80;34.70
16827;DHT22;8530;49.540;8.576;2023-05-21T11:39:52;30.90;34.50
16827;DHT22;8530;49.540;8.576;2023-05-21T11:42:32;30.80;34.30
16827;DHT22;8530;49.540;8.576;2023-05-21T11:45:00;30.70;34.30
16827;DHT22;8530;49.540;8.576;2023-05-21T11:47:30;30.70;34.40
16827;DHT22;8530;49.540;8.576;2023-05-21T11:49:58;30.80;34.30
16827;DHT22;8530;49.540;8.576;2023-05-21T11:52:27;30.90;34.20
16827;DHT22;8530;49.540;8.576;2023-05-21T11:54:54;30.90;33.80
16827;DHT22;8530;49.540;8.576;2023-05-21T11:57:25;30.70;33.60
16827;DHT22;8530;49.540;8.576;2023-05-21T11:59:55;30.70;33.80
16827;DHT22;8530;49.540;8.576;2023-05-21T12:02:24;30.80;33.60
16827;DHT22;8530;49.540;8.576;2023-05-21T12:04:53;30.90;33.40
16827;DHT22;8530;49.540;8.576;2023-05-21T12:07:26;31.10;33.30
16827;DHT22;8530;49.540;8.576;2023-05-21T12:09:54;31.30;33.00
16827;DHT22;8530;49.540;8.576;2023-05-21T12:12:23;31.60;33.00
16827;DHT22;8530;49.540;8.576;2023-05-21T12:14:51;31.70;32.60
16827;DHT22;8530;49.540;8.576;2023-05-21T12:17:19;31.80;32.20
16827;DHT22;8530;49.540;8.576;2023-05-21T12:19:47;31.90;32.00
16827;DHT22;8530;49.540;8.576;2023-05-21T12:22:15;32.10;31.90
16827;DHT22;8530;49.540;8.576;2023-05-21T12:24:42;32.50;31.50
16827;DHT22;8530;49.540;8.576;2023-05-21T12:27:10;32.70;31.10
16827;DHT22;8530;49.540;8.576;2023-05-21T12:29:38;32.70;30.70
16827;DHT22;8530;49.540;8.576;2023-05-21T12:32:07;32.80;30.40
16827;DHT22;8530;49.540;8.576;2023-05-21T12:34:38;32.90;30.00
16827;DHT22;8530;49.540;8.576;2023-05-21T12:37:06;33.00;29.40
16827;DHT22;8530;49.540;8.576;2023-05-21T12:39:38;33.00;29.20
16827;DHT22;8530;49.540;8.576;2023-05-21T12:42:05;33.20;28.90
16827;DHT22;8530;49.540;8.576;2023-05-21T12:44:32;33.20;29.00
16827;DHT22;8530;49.540;8.576;2023-05-21T12:46:59;33.00;28.30
16827;DHT22;8530;49.540;8.576;2023-05-21T12:49:31;33.20;28.20
16827;DHT22;8530;49.540;8.576;2023-05-21T12:51:58;33.20;28.00
16827;DHT22;8530;49.540;8.576;2023-05-21T12:54:29;33.20;27.90
16827;DHT22;8530;49.540;8.576;2023-05-21T12:56:57;33.30;27.90
16827;DHT22;8530;49.540;8.576;2023-05-21T12:59:42;33.20;27.60
16827;DHT22;8530;49.540;8.576;2023-05-21T13:02:13;33.20;27.70
16827;DHT22;8530;49.540;8.576;2023-05-21T13:04:40;33.30;27.60
16827;DHT22;8530;49.540;8.576;2023-05-21T13:07:06;33.40;27.50
16827;DHT22;8530;49.540;8.576;2023-05-21T13:09:33;33.40;27.40
16827;DHT22;8530;49.540;8.576;2023-05-21T13:12:01;33.20;27.50
16827;DHT22;8530;49.540;8.576;2023-05-21T13:14:28;33.20;27.50
16827;DHT22;8530;49.540;8.576;2023-05-21T13:16:55;33.20;27.50
16827;DHT22;8530;49.540;8.576;2023-05-21T13:19:25;33.00;27.50
16827;DHT22;8530;49.540;8.576;2023-05-21T13:21:55;32.90;27.70
16827;DHT22;8530;49.540;8.576;2023-05-21T13:24:22;32.70;27.70
16827;DHT22;8530;49.540;8.576;2023-05-21T13:26:49;32.70;27.80
16827;DHT22;8530;49.540;8.576;2023-05-21T13:29:17;32.80;27.90
16827;DHT22;8530;49.540;8.576;2023-05-21T13:31:44;32.60;27.80
16827;DHT22;8530;49.540;8.576;2023-05-21T13:34:11;32.50;27.80
16827;DHT22;8530;49.540;8.576;2023-05-21T13:36:38;32.50;27.90
16827;DHT22;8530;49.540;8.576;2023-05-21T13:39:05;32.30;27.90
16827;DHT22;8530;49.540;8.576;2023-05-21T13:41:31;32.30;28.10
16827;DHT22;8530;49.540;8.576;2023-05-21T13:43:59;32.20;28.00
16827;DHT22;8530;49.540;8.576;2023-05-21T13:46:27;32.20;27.80
16827;DHT22;8530;49.540;8.576;2023-05-21T13:48:53;32.10;27.60
16827;DHT22;8530;49.540;8.576;2023-05-21T13:51:20;32.10;27.60
16827;DHT22;8530;49.540;8.576;2023-05-21T13:53:47;32.10;27.50
16827;DHT22;8530;49.540;8.576;2023-05-21T13:56:13;32.10;27.50
16827;DHT22;8530;49.540;8.576;2023-05-21T13:58:40;32.30;27.30
16827;DHT22;8530;49.540;8.576;2023-05-21T14:01:07;32.50;27.20
16827;DHT22;8530;49.540;8.576;2023-05-21T14:03:35;32.80;27.00
16827;DHT22;8530;49.540;8.576;2023-05-21T14:06:02;33.00;26.60
16827;DHT22;8530;49.540;8.576;2023-05-21T14:08:30;33.20;26.40
16827;DHT22;8530;49.540;8.576;2023-05-21T14:10:57;33.20;26.20
16827;DHT22;8530;49.540;8.576;2023-05-21T14:13:23;33.40;26.10
16827;DHT22;8530;49.540;8.576;2023-05-21T14:15:50;33.40;26.10
16827;DHT22;8530;49.540;8.576;2023-05-21T14:18:17;33.60;26.00
16827;DHT22;8530;49.540;8.576;2023-05-21T14:20:45;33.70;25.70
16827;DHT22;8530;49.540;8.576;2023-05-21T14:23:12;33.70;25.70
16827;DHT22;8530;49.540;8.576;2023-05-21T14:25:41;33.60;25.70
16827;DHT22;8530;49.540;8.576;2023-05-21T14:28:11;33.60;25.70
16827;DHT22;8530;49.540;8.576;2023-05-21T14:30:38;33.50;25.70
16827;DHT22;8530;49.540;8.576;2023-05-21T14:33:04;33.40;25.60
16827;DHT22;8530;49.540;8.576;2023-05-21T14:35:31;33.20;25.70
16827;DHT22;8530;49.540;8.576;2023-05-21T14:37:59;32.90;25.70
16827;DHT22;8530;49.540;8.576;2023-05-21T14:40:26;32.60;25.90
16827;DHT22;8530;49.540;8.576;2023-05-21T14:42:53;32.30;26.00
16827;DHT22;8530;49.540;8.576;2023-05-21T14:45:20;32.10;26.20
16827;DHT22;8530;49.540;8.576;2023-05-21T14:47:47;32.00;26.30
16827;DHT22;8530;49.540;8.576;2023-05-21T14:50:15;31.90;26.30
16827;DHT22;8530;49.540;8.576;2023-05-21T14:52:44;31.90;26.50
16827;DHT22;8530;49.540;8.576;2023-05-21T14:55:13;32.00;26.50
16827;DHT22;8530;49.540;8.576;2023-05-21T14:57:41;31.90;26.40
16827;DHT22;8530;49.540;8.576;2023-05-21T15:00:08;31.70;26.40
16827;DHT22;8530;49.540;8.576;2023-05-21T15:02:36;31.50;26.40
16827;DHT22;8530;49.540;8.576;2023-05-21T15:05:03;31.40;26.60
16827;DHT22;8530;49.540;8.576;2023-05-21T15:07:30;31.40;26.70
16827;DHT22;8530;49.540;8.576;2023-05-21T15:09:56;31.50;26.70
16827;DHT22;8530;49.540;8.576;2023-05-21T15:12:24;31.40;26.70
16827;DHT22;8530;49.540;8.576;2023-05-21T15:14:51;31.30;26.80
16827;DHT22;8530;49.540;8.576;2023-05-21T15:17:18;31.20;26.80
16827;DHT22;8530;49.540;8.576;2023-05-21T15:19:45;31.10;26.80
16827;DHT22;8530;49.540;8.576;2023-05-21T15:22:11;31.00;26.90
16827;DHT22;8530;49.540;8.576;2023-05-21T15:24:38;31.00;27.00
16827;DHT22;8530;49.540;8.576;2023-05-21T15:27:05;31.00;27.10
16827;DHT22;8530;49.540;8.576;2023-05-21T15:29:33;30.90;27.20
16827;DHT22;8530;49.540;8.576;2023-05-21T15:31:59;30.80;27.20
16827;DHT22;8530;49.540;8.576;2023-05-21T15:34:29;30.70;27.30
16827;DHT22;8530;49.540;8.576;2023-05-21T15:36:56;30.50;27.40
16827;DHT22;8530;49.540;8.576;2023-05-21T15:39:23;30.40;27.50
16827;DHT22;8530;49.540;8.576;2023-05-21T15:41:49;30.30;27.60
16827;DHT22;8530;49.540;8.576;2023-05-21T15:44:18;30.30;27.80
16827;DHT22;8530;49.540;8.576;2023-05-21T15:46:46;30.10;28.00
16827;DHT22;8530;49.540;8.576;2023-05-21T15:49:14;30.00;28.20
16827;DHT22;8530;49.540;8.576;2023-05-21T15:51:41;30.00;28.40
16827;DHT22;8530;49.540;8.576;2023-05-21T15:54:08;30.10;28.60
16827;DHT22;8530;49.540;8.576;2023-05-21T15:56:35;30.10;28.70